Time;durP1;ratioP1;P1;durP2;ratioP2;P2;SDS_P1;SDS_P2;PMS_P1;PMS_P2;Temp;Humidity;BMP_temperature;BMP_pressure;BME280_temperature;BME280_humidity;BME280_pressure;Samples;Min_cycle;Max_cycle;Signal;HPM_P1;HPM_P2
2022/05/08 00:00:48;;;;;;;31.15;5.60;;;7.70;99.90;;;;;;5034294;28;20057;-71
2022/05/08 00:03:14;;;;;;;22.52;5.15;;;7.70;99.90;;;;;;5034533;28;20363;-70
2022/05/08 00:05:39;;;;;;;21.40;5.45;;;7.70;99.90;;;;;;5034437;28;20350;-71
2022/05/08 00:08:05;;;;;;;29.58;6.15;;;7.70;99.90;;;;;;5035072;28;20140;-71
2022/05/08 00:10:31;;;;;;;19.75;5.50;;;7.60;99.90;;;;;;5034456;28;20037;-71
2022/05/08 00:12:57;;;;;;;24.55;6.28;;;7.50;99.90;;;;;;5017057;28;20046;-71
2022/05/08 00:15:22;;;;;;;23.55;6.68;;;7.60;99.90;;;;;;5016935;28;20465;-71
2022/05/08 00:17:48;;;;;;;22.83;5.65;;;7.50;99.90;;;;;;5034572;28;20485;-71
2022/05/08 00:20:13;;;;;;;25.60;6.20;;;7.50;99.90;;;;;;5017164;28;20049;-70
2022/05/08 00:22:44;;;;;;;31.83;6.13;;;7.40;99.90;;;;;;5016690;28;20362;-71
2022/05/08 00:25:09;;;;;;;22.83;5.90;;;7.40;99.90;;;;;;5034676;28;20373;-71
2022/05/08 00:27:35;;;;;;;22.98;6.38;;;7.30;99.90;;;;;;5034642;28;20065;-71
2022/05/08 00:30:01;;;;;;;23.08;5.63;;;7.50;99.90;;;;;;5034349;28;20053;-71
2022/05/08 00:32:26;;;;;;;20.75;5.88;;;7.30;99.90;;;;;;5017061;28;20045;-70
2022/05/08 00:34:52;;;;;;;25.77;5.50;;;7.30;99.90;;;;;;5034198;28;20472;-70
2022/05/08 00:37:18;;;;;;;28.77;6.95;;;7.30;99.90;;;;;;5034614;28;20053;-70
2022/05/08 00:39:43;;;;;;;21.23;5.40;;;7.20;99.90;;;;;;5034153;28;20038;-71
2022/05/08 00:42:12;;;;;;;28.30;6.55;;;7.20;99.90;;;;;;5034355;28;20037;-70
2022/05/08 00:44:38;;;;;;;23.95;5.70;;;7.20;99.90;;;;;;5017242;28;20081;-70
2022/05/08 00:47:04;;;;;;;24.50;6.28;;;7.10;99.90;;;;;;5016944;28;20080;-70
2022/05/08 00:49:31;;;;;;;22.23;5.45;;;7.20;99.90;;;;;;5033804;28;20065;-71
2022/05/08 00:51:57;;;;;;;22.60;5.95;;;7.20;99.90;;;;;;5037737;28;20052;-70
2022/05/08 00:54:23;;;;;;;29.98;6.78;;;7.10;99.90;;;;;;5037389;28;20053;-71
2022/05/08 00:56:49;;;;;;;24.58;5.72;;;7.10;99.90;;;;;;5037623;28;20110;-71
2022/05/08 00:59:14;;;;;;;19.10;5.50;;;7.10;99.90;;;;;;5037494;28;20048;-71
2022/05/08 01:01:40;;;;;;;22.95;5.78;;;7.00;99.90;;;;;;5037417;28;20041;-71
2022/05/08 01:04:05;;;;;;;26.65;5.97;;;7.10;99.90;;;;;;5037934;28;20037;-71
2022/05/08 01:06:32;;;;;;;23.50;5.65;;;7.00;99.90;;;;;;5037299;28;20051;-71
2022/05/08 01:08:58;;;;;;;23.67;5.75;;;7.00;99.90;;;;;;5037810;28;20046;-71
2022/05/08 01:11:24;;;;;;;20.67;5.57;;;7.00;99.90;;;;;;5036997;28;20163;-71
2022/05/08 01:13:49;;;;;;;23.42;5.55;;;7.00;99.90;;;;;;5036994;28;20041;-71
2022/05/08 01:16:21;;;;;;;16.70;5.18;;;7.00;99.90;;;;;;5037092;28;20043;-71
2022/05/08 01:18:48;;;;;;;22.50;5.50;;;7.00;99.90;;;;;;5036905;28;20041;-71
2022/05/08 01:21:16;;;;;;;24.27;6.05;;;7.00;99.90;;;;;;5019738;28;20056;-71
2022/05/08 01:23:41;;;;;;;36.13;7.25;;;7.00;99.90;;;;;;5019361;28;20095;-70
2022/05/08 01:26:07;;;;;;;20.25;6.32;;;7.10;99.90;;;;;;5019573;28;20505;-71
2022/05/08 01:28:33;;;;;;;25.85;5.90;;;6.90;99.90;;;;;;5037106;28;20450;-71
2022/05/08 01:30:59;;;;;;;22.77;5.82;;;6.90;99.90;;;;;;5033925;28;20052;-71
2022/05/08 01:33:25;;;;;;;20.85;5.55;;;6.90;99.90;;;;;;5036808;28;20055;-71
2022/05/08 01:35:51;;;;;;;24.25;5.68;;;6.90;99.90;;;;;;5037285;28;20037;-71
2022/05/08 01:38:20;;;;;;;22.88;5.43;;;6.90;99.90;;;;;;5036784;28;20037;-70
2022/05/08 01:40:46;;;;;;;23.50;5.10;;;6.80;99.90;;;;;;5019644;28;20473;-71
2022/05/08 01:43:12;;;;;;;25.77;5.65;;;6.80;99.90;;;;;;5036846;28;20081;-71
2022/05/08 01:45:39;;;;;;;22.35;5.43;;;6.80;99.90;;;;;;5036645;28;20037;-71
2022/05/08 01:48:23;;;;;;;22.67;6.07;;;6.70;99.90;;;;;;5036438;28;20125;-72
2022/05/08 01:50:53;;;;;;;21.63;6.18;;;6.60;99.90;;;;;;5019511;28;20132;-71
2022/05/08 01:53:20;;;;;;;18.38;4.82;;;6.60;99.90;;;;;;5036405;28;20041;-72
2022/05/08 01:55:49;;;;;;;22.60;6.20;;;6.50;99.90;;;;;;5033461;28;20057;-71
2022/05/08 01:58:16;;;;;;;22.45;5.15;;;6.50;99.90;;;;;;5036403;28;20049;-71
2022/05/08 02:00:42;;;;;;;22.33;6.03;;;6.50;99.90;;;;;;5035129;28;20041;-71
2022/05/08 02:03:07;;;;;;;21.20;5.45;;;6.40;99.90;;;;;;5036122;28;20045;-71
2022/05/08 02:05:33;;;;;;;18.20;5.32;;;6.40;99.90;;;;;;5036479;28;20041;-71
2022/05/08 02:08:01;;;;;;;27.58;6.22;;;6.30;99.90;;;;;;5035248;28;20041;-72
2022/05/08 02:10:27;;;;;;;22.23;5.93;;;6.30;99.90;;;;;;5036046;28;20045;-72
2022/05/08 02:12:52;;;;;;;28.55;6.93;;;6.20;99.90;;;;;;5035129;28;20053;-72
2022/05/08 02:15:18;;;;;;;18.95;6.15;;;6.20;99.90;;;;;;5036503;28;20042;-72
2022/05/08 02:17:43;;;;;;;19.63;5.35;;;6.10;99.90;;;;;;5035969;28;20408;-72
2022/05/08 02:20:10;;;;;;;19.88;5.05;;;6.10;99.90;;;;;;5036153;28;20100;-72
2022/05/08 02:22:37;;;;;;;15.25;4.63;;;6.10;99.90;;;;;;5036240;28;20045;-72
2022/05/08 02:25:04;;;;;;;19.38;5.78;;;6.10;99.90;;;;;;5035789;28;20052;-71
2022/05/08 02:27:41;;;;;;;15.57;5.32;;;6.10;99.90;;;;;;5035964;28;20111;-72
2022/05/08 02:30:09;;;;;;;20.17;5.22;;;6.00;99.90;;;;;;5035267;28;20057;-72
2022/05/08 02:32:35;;;;;;;22.15;5.13;;;6.00;99.90;;;;;;5035516;28;20461;-72
2022/05/08 02:35:02;;;;;;;18.55;5.50;;;6.00;99.90;;;;;;5036071;28;20110;-72
2022/05/08 02:37:27;;;;;;;19.77;4.78;;;6.00;99.90;;;;;;5035654;28;20048;-72
2022/05/08 02:39:54;;;;;;;17.45;5.03;;;5.90;99.90;;;;;;5035590;28;20121;-72
2022/05/08 02:42:19;;;;;;;20.17;4.72;;;5.90;99.90;;;;;;5035420;28;20049;-72
2022/05/08 02:44:45;;;;;;;17.65;4.85;;;5.90;99.90;;;;;;5035707;28;20132;-71
2022/05/08 02:47:10;;;;;;;19.17;5.10;;;5.90;99.90;;;;;;5035439;28;20050;-72
2022/05/08 02:49:36;;;;;;;17.92;5.35;;;5.90;99.90;;;;;;5035406;28;20470;-71
2022/05/08 02:52:01;;;;;;;14.32;4.78;;;5.80;99.90;;;;;;5035549;28;20386;-71
2022/05/08 02:54:27;;;;;;;16.77;4.80;;;5.80;99.90;;;;;;5034166;28;20477;-72
2022/05/08 02:59:36;;;;;;;19.30;5.20;;;5.80;99.90;;;;;;5035220;28;20120;-71
2022/05/08 03:02:02;;;;;;;14.77;4.80;;;5.70;99.90;;;;;;5034293;28;20538;-72
2022/05/08 03:04:28;;;;;;;15.10;4.45;;;5.70;99.90;;;;;;5035271;28;20045;-72
2022/05/08 03:06:53;;;;;;;17.48;5.07;;;5.70;99.90;;;;;;5035706;28;20454;-71
2022/05/08 03:09:19;;;;;;;22.30;4.90;;;5.70;99.90;;;;;;5035064;28;20045;-72
2022/05/08 03:11:45;;;;;;;17.13;5.10;;;5.70;99.90;;;;;;5035384;28;20526;-72
2022/05/08 03:14:10;;;;;;;18.05;4.60;;;5.60;99.90;;;;;;5034805;28;20133;-72
2022/05/08 03:16:36;;;;;;;15.98;4.85;;;5.60;99.90;;;;;;5035088;28;20077;-72
2022/05/08 03:19:01;;;;;;;18.13;5.20;;;5.60;99.90;;;;;;5035458;28;20041;-71
2022/05/08 03:21:27;;;;;;;14.40;4.88;;;5.60;99.90;;;;;;5034846;28;20050;-72
2022/05/08 03:23:53;;;;;;;18.05;5.10;;;5.70;99.90;;;;;;5034605;28;20053;-72
2022/05/08 03:26:19;;;;;;;15.55;5.50;;;5.60;99.90;;;;;;5034673;28;20081;-72
2022/05/08 03:28:45;;;;;;;15.27;4.68;;;5.60;99.90;;;;;;5034755;28;20447;-71
2022/05/08 03:31:11;;;;;;;12.93;4.75;;;5.60;99.90;;;;;;5034906;28;20033;-72
2022/05/08 03:33:38;;;;;;;22.55;4.80;;;5.50;99.90;;;;;;5035069;28;20047;-72
2022/05/08 03:36:04;;;;;;;12.55;4.35;;;5.50;99.90;;;;;;5034762;28;20042;-71
2022/05/08 03:38:30;;;;;;;15.73;4.78;;;5.50;99.90;;;;;;5035123;28;20037;-72
2022/05/08 03:40:56;;;;;;;16.05;4.80;;;5.50;99.90;;;;;;5032476;28;20049;-72
2022/05/08 03:43:23;;;;;;;12.90;4.53;;;5.50;99.90;;;;;;5034081;28;20097;-71
2022/05/08 03:45:49;;;;;;;11.93;4.35;;;5.50;99.90;;;;;;5034894;28;20058;-71
2022/05/08 03:48:15;;;;;;;20.63;5.13;;;5.50;99.90;;;;;;5034546;28;20354;-72
2022/05/08 03:50:41;;;;;;;11.80;4.95;;;5.50;99.90;;;;;;5033628;28;20464;-71
2022/05/08 03:53:07;;;;;;;17.63;4.70;;;5.50;99.90;;;;;;5034607;28;20053;-71
2022/05/08 03:55:32;;;;;;;13.48;4.88;;;5.50;99.90;;;;;;5034359;28;20064;-71
2022/05/08 03:57:58;;;;;;;15.32;4.53;;;5.50;99.90;;;;;;5000067;28;20428;-71
2022/05/08 04:00:24;;;;;;;16.02;4.53;;;5.50;99.90;;;;;;5034390;28;20046;-71
2022/05/08 04:02:49;;;;;;;12.57;4.57;;;5.50;99.90;;;;;;5017389;28;20077;-71
2022/05/08 04:05:15;;;;;;;14.27;4.60;;;5.50;99.90;;;;;;5035042;28;20045;-72
2022/05/08 04:07:41;;;;;;;11.35;4.40;;;5.50;99.90;;;;;;5034560;28;20037;-71
2022/05/08 04:10:08;;;;;;;10.25;3.85;;;5.60;99.90;;;;;;5034558;28;20044;-71
2022/05/08 04:12:35;;;;;;;13.38;4.22;;;5.60;99.90;;;;;;5028734;28;20041;-72
2022/05/08 04:15:00;;;;;;;20.92;4.60;;;5.60;99.90;;;;;;5034554;28;20361;-70
2022/05/08 04:17:28;;;;;;;10.40;4.15;;;6.10;99.90;;;;;;5001444;28;20111;-71
2022/05/08 04:19:55;;;;;;;15.68;4.05;;;5.70;99.90;;;;;;5034890;28;20347;-71
2022/05/08 04:25:07;;;;;;;10.50;4.00;;;5.80;99.90;;;;;;5018289;28;20062;-72
2022/05/08 04:27:35;;;;;;;13.38;4.40;;;5.80;99.90;;;;;;5038557;28;20060;-72
2022/05/08 04:30:02;;;;;;;19.83;5.15;;;5.90;99.90;;;;;;5038523;28;20053;-72
2022/05/08 04:32:27;;;;;;;15.00;4.43;;;5.90;99.90;;;;;;5037900;28;20037;-72
2022/05/08 04:34:53;;;;;;;16.38;3.97;;;6.00;99.90;;;;;;5037890;28;20052;-72
2022/05/08 04:37:18;;;;;;;13.38;4.00;;;6.00;99.90;;;;;;5037899;28;20060;-72
2022/05/08 04:39:44;;;;;;;8.93;3.70;;;6.10;99.90;;;;;;5020602;28;20068;-72
2022/05/08 04:42:09;;;;;;;11.65;4.47;;;6.10;99.90;;;;;;5038115;28;20060;-72
2022/05/08 04:44:35;;;;;;;11.27;3.67;;;6.20;99.90;;;;;;5037768;28;20046;-72
2022/05/08 04:47:01;;;;;;;12.27;4.18;;;6.30;99.90;;;;;;5020428;28;20041;-72
2022/05/08 04:49:27;;;;;;;13.63;4.40;;;6.50;99.90;;;;;;5020168;28;20456;-72
2022/05/08 04:51:53;;;;;;;15.48;3.90;;;6.50;99.90;;;;;;5037485;28;20462;-72
2022/05/08 04:54:18;;;;;;;15.32;3.90;;;6.50;99.90;;;;;;5022701;28;20049;-72
2022/05/08 04:56:44;;;;;;;16.23;3.38;;;6.50;99.90;;;;;;5038227;28;20060;-71
2022/05/08 04:59:09;;;;;;;11.00;3.20;;;6.60;99.90;;;;;;5037653;28;20049;-72
2022/05/08 05:01:35;;;;;;;13.73;3.78;;;6.70;99.90;;;;;;5037237;28;20053;-72
2022/05/08 05:04:00;;;;;;;9.20;3.50;;;6.90;99.90;;;;;;5037448;28;20045;-72
2022/05/08 05:06:26;;;;;;;14.65;3.40;;;7.00;99.90;;;;;;5037443;28;20053;-72
2022/05/08 05:08:52;;;;;;;15.73;3.78;;;7.10;99.90;;;;;;5037388;28;20053;-71
2022/05/08 05:11:17;;;;;;;13.10;3.30;;;7.20;99.90;;;;;;5037152;28;20049;-72
2022/05/08 05:13:43;;;;;;;10.43;3.58;;;7.40;99.90;;;;;;5036044;28;20053;-72
2022/05/08 05:16:08;;;;;;;13.95;4.50;;;7.60;99.90;;;;;;5036255;28;20059;-71
2022/05/08 05:18:34;;;;;;;15.43;3.63;;;8.00;99.90;;;;;;5037224;28;20052;-72
2022/05/08 05:20:59;;;;;;;13.23;3.53;;;8.30;99.90;;;;;;5037005;28;20124;-72
2022/05/08 05:23:25;;;;;;;15.23;3.50;;;8.60;99.90;;;;;;5037694;28;20041;-72
2022/05/08 05:25:51;;;;;;;11.73;2.53;;;9.00;99.90;;;;;;5037324;28;20469;-72
2022/05/08 05:28:17;;;;;;;11.40;2.95;;;9.60;99.90;;;;;;5036854;28;20343;-72
2022/05/08 05:30:43;;;;;;;11.55;2.60;;;10.10;99.90;;;;;;5037134;28;20053;-72
2022/05/08 05:33:15;;;;;;;8.88;2.38;;;10.90;99.90;;;;;;5036299;28;20084;-72
2022/05/08 05:35:41;;;;;;;6.80;2.55;;;12.10;99.90;;;;;;5037181;28;20060;-72
2022/05/08 05:38:07;;;;;;;14.25;2.70;;;13.00;99.90;;;;;;5034794;28;20060;-72
2022/05/08 05:40:33;;;;;;;9.52;2.50;;;13.40;99.90;;;;;;5037322;28;20446;-72
2022/05/08 05:42:59;;;;;;;10.85;2.13;;;13.80;99.90;;;;;;5036063;28;20091;-72
2022/05/08 05:45:24;;;;;;;8.13;2.35;;;13.80;99.90;;;;;;5036638;28;20041;-72
2022/05/08 05:47:50;;;;;;;11.60;3.75;;;13.40;99.90;;;;;;5037078;28;20118;-72
2022/05/08 05:50:17;;;;;;;12.48;2.53;;;13.20;99.90;;;;;;5035903;28;20446;-73
2022/05/08 05:52:43;;;;;;;10.07;3.60;;;13.30;99.90;;;;;;5036550;28;20056;-72
2022/05/08 05:55:09;;;;;;;9.35;2.30;;;13.50;99.90;;;;;;5036810;28;20501;-73
2022/05/08 05:57:35;;;;;;;10.48;2.35;;;13.90;99.90;;;;;;5037026;28;20335;-72
2022/05/08 06:00:03;;;;;;;9.25;2.50;;;14.20;99.90;;;;;;5036910;28;20037;-72
2022/05/08 06:02:28;;;;;;;5.85;2.13;;;14.10;99.90;;;;;;5036814;28;20135;-72
2022/05/08 06:04:54;;;;;;;9.43;1.80;;;13.90;99.90;;;;;;5036366;28;20637;-73
2022/05/08 06:07:19;;;;;;;10.07;2.35;;;13.70;99.90;;;;;;5002619;28;20469;-73
2022/05/08 06:09:45;;;;;;;9.73;1.92;;;13.60;99.90;;;;;;5018975;28;20053;-73
2022/05/08 06:12:11;;;;;;;6.57;1.67;;;13.90;99.90;;;;;;5036183;28;20072;-73
2022/05/08 06:14:37;;;;;;;10.50;2.13;;;14.20;99.90;;;;;;5036007;28;20041;-72
2022/05/08 06:17:02;;;;;;;10.00;2.22;;;13.90;99.90;;;;;;5032865;28;20099;-72
2022/05/08 06:19:31;;;;;;;9.55;2.33;;;13.50;99.90;;;;;;5036452;28;20134;-73
2022/05/08 06:21:57;;;;;;;11.38;2.28;;;13.20;99.90;;;;;;5018972;28;20049;-72
2022/05/08 06:24:22;;;;;;;11.32;3.00;;;13.00;99.90;;;;;;5036311;28;20099;-72
2022/05/08 06:26:48;;;;;;;8.02;2.33;;;13.20;99.90;;;;;;5018892;28;20458;-73
2022/05/08 06:29:13;;;;;;;12.07;2.25;;;13.60;99.90;;;;;;5035904;28;20464;-72
2022/05/08 06:31:39;;;;;;;10.10;1.90;;;13.50;99.90;;;;;;5036353;28;20129;-72
2022/05/08 06:34:05;;;;;;;10.15;2.00;;;13.30;99.90;;;;;;5019173;28;20447;-72
2022/05/08 06:36:32;;;;;;;8.00;1.98;;;13.20;99.90;;;;;;5035706;28;20084;-71
2022/05/08 06:38:58;;;;;;;9.00;1.83;;;13.00;99.90;;;;;;5035391;28;20053;-72
2022/05/08 06:41:24;;;;;;;10.98;2.05;;;13.20;99.90;;;;;;5035654;28;20045;-73
2022/05/08 06:43:50;;;;;;;9.30;2.28;;;13.50;99.90;;;;;;5035717;28;20060;-72
2022/05/08 06:46:15;;;;;;;10.80;1.90;;;13.50;99.90;;;;;;5035579;28;20049;-72
2022/05/08 06:48:41;;;;;;;13.50;1.90;;;13.20;99.90;;;;;;5017783;28;20191;-72
2022/05/08 06:51:06;;;;;;;10.18;1.98;;;12.80;99.90;;;;;;5035403;28;20037;-71
2022/05/08 06:53:32;;;;;;;10.05;1.67;;;12.70;99.90;;;;;;5035378;28;20049;-73
2022/05/08 06:55:58;;;;;;;9.32;2.20;;;13.40;99.90;;;;;;5033389;28;20115;-72
2022/05/08 06:58:26;;;;;;;8.27;1.75;;;13.70;99.90;;;;;;5034791;28;20049;-72
2022/05/08 07:03:36;;;;;;;9.25;2.15;;;14.70;99.90;;;;;;5035232;28;20064;-72
2022/05/08 07:06:02;;;;;;;12.85;2.20;;;15.20;99.90;;;;;;5035442;28;20377;-72
2022/05/08 07:08:28;;;;;;;7.68;1.90;;;15.20;99.90;;;;;;5035791;28;20083;-73
2022/05/08 07:10:54;;;;;;;9.85;2.30;;;15.00;99.90;;;;;;5035325;28;20401;-72
2022/05/08 07:13:26;;;;;;;9.63;1.83;;;14.60;99.90;;;;;;5035647;28;20111;-72
2022/05/08 07:15:55;;;;;;;13.63;2.38;;;14.00;99.90;;;;;;5035530;28;20045;-72
2022/05/08 07:18:21;;;;;;;15.25;2.20;;;13.70;99.90;;;;;;5035073;28;20478;-72
2022/05/08 07:20:47;;;;;;;10.00;2.00;;;14.50;99.90;;;;;;5035097;28;20081;-72
2022/05/08 07:23:12;;;;;;;8.73;2.03;;;15.20;99.90;;;;;;5035026;28;20370;-72
2022/05/08 07:25:39;;;;;;;14.13;1.90;;;15.50;99.90;;;;;;5033835;28;20091;-73
2022/05/08 07:28:05;;;;;;;11.32;2.53;;;15.70;99.90;;;;;;5034922;28;20037;-72
2022/05/08 07:30:30;;;;;;;9.65;2.30;;;15.40;99.50;;;;;;5035397;28;20046;-72
2022/05/08 07:33:00;;;;;;;13.30;2.38;;;15.20;99.30;;;;;;5035129;28;20488;-72
2022/05/08 07:38:10;;;;;;;12.85;2.40;;;14.40;99.90;;;;;;5034695;28;20056;-72
2022/05/08 07:40:35;;;;;;;9.70;3.22;;;14.40;99.90;;;;;;5033736;28;20053;-72
2022/05/08 07:43:01;;;;;;;10.15;2.10;;;14.80;99.90;;;;;;5034868;28;20442;-72
2022/05/08 07:45:28;;;;;;;11.73;2.22;;;15.40;99.70;;;;;;5035278;28;20037;-72
2022/05/08 07:47:55;;;;;;;9.57;1.90;;;15.80;99.20;;;;;;5034646;28;20049;-73
2022/05/08 07:50:21;;;;;;;12.68;3.03;;;16.60;97.90;;;;;;5033606;28;20034;-70
2022/05/08 07:52:46;;;;;;;10.32;2.33;;;17.10;96.80;;;;;;5034810;28;20045;-73
2022/05/08 07:55:12;;;;;;;11.35;2.33;;;17.20;95.30;;;;;;5034542;28;20046;-72
2022/05/08 07:57:37;;;;;;;6.35;1.75;;;17.40;94.90;;;;;;5034808;28;20450;-72
2022/05/08 08:00:05;;;;;;;10.95;2.10;;;17.60;95.10;;;;;;5035122;28;20476;-72
2022/05/08 08:02:30;;;;;;;13.85;2.58;;;17.80;94.30;;;;;;5021269;28;20045;-73
2022/05/08 08:04:56;;;;;;;11.15;2.50;;;18.50;93.30;;;;;;5038801;28;20115;-71
2022/05/08 08:07:21;;;;;;;12.45;2.60;;;18.30;92.50;;;;;;5020978;28;20458;-71
2022/05/08 08:09:47;;;;;;;15.57;2.22;;;18.00;92.60;;;;;;5038446;28;20083;-71
2022/05/08 08:12:12;;;;;;;8.88;2.30;;;17.50;93.00;;;;;;5038894;28;20126;-71
2022/05/08 08:14:38;;;;;;;12.75;2.20;;;16.90;93.00;;;;;;5021508;28;20057;-71
2022/05/08 08:17:04;;;;;;;9.90;2.35;;;16.80;94.00;;;;;;5020838;28;20045;-72
2022/05/08 08:19:30;;;;;;;8.60;2.22;;;17.50;94.00;;;;;;5020711;28;20041;-72
2022/05/08 08:21:56;;;;;;;15.25;2.40;;;18.10;91.20;;;;;;5021093;28;20044;-71
2022/05/08 08:24:22;;;;;;;13.80;2.92;;;18.10;91.70;;;;;;5037990;28;20045;-71
2022/05/08 08:26:47;;;;;;;9.40;2.00;;;18.00;91.30;;;;;;5038646;28;20453;-71
2022/05/08 08:29:14;;;;;;;12.02;2.42;;;18.50;91.60;;;;;;5038246;28;20060;-71
2022/05/08 08:31:40;;;;;;;10.15;2.05;;;18.90;90.10;;;;;;5038147;28;20056;-71
2022/05/08 08:34:05;;;;;;;9.68;2.15;;;18.40;83.00;;;;;;5021570;28;20053;-70
2022/05/08 08:36:31;;;;;;;11.55;2.35;;;18.30;83.80;;;;;;5020718;28;20049;-71
2022/05/08 08:38:57;;;;;;;9.88;2.28;;;17.50;85.90;;;;;;5037602;28;20437;-71
2022/05/08 08:41:27;;;;;;;9.32;2.45;;;17.90;91.30;;;;;;5038306;28;20385;-70
2022/05/08 08:49:25;;;;;;;10.73;2.35;;;18.90;82.00;;;;;;5037362;28;20060;-71
2022/05/08 08:51:51;;;;;;;11.30;2.38;;;18.40;84.10;;;;;;5037690;28;20046;-71
2022/05/08 08:54:21;;;;;;;11.07;2.40;;;18.00;86.00;;;;;;5038072;28;20412;-71
2022/05/08 08:56:48;;;;;;;9.02;2.10;;;18.40;84.40;;;;;;5020898;28;20068;-71
2022/05/08 08:59:14;;;;;;;9.90;2.05;;;18.10;85.50;;;;;;5037599;28;20055;-71
2022/05/08 09:01:44;;;;;;;10.77;2.47;;;18.10;85.50;;;;;;5037426;28;20045;-71
2022/05/08 09:04:15;;;;;;;16.38;2.85;;;18.20;86.20;;;;;;5037443;28;20413;-71
2022/05/08 09:06:42;;;;;;;10.63;2.70;;;17.80;85.40;;;;;;5037413;28;20052;-71
2022/05/08 09:09:23;;;;;;;11.13;2.45;;;16.90;88.10;;;;;;5038143;28;20421;-72
2022/05/08 09:11:49;;;;;;;11.38;2.35;;;16.30;91.00;;;;;;5037221;28;20128;-71
2022/05/08 09:14:27;;;;;;;11.80;2.63;;;16.20;91.90;;;;;;5019740;28;20045;-73
2022/05/08 09:16:56;;;;;;;15.95;2.83;;;16.10;92.60;;;;;;5037713;28;20049;-70
2022/05/08 09:19:38;;;;;;;13.38;2.63;;;15.90;92.80;;;;;;5037466;28;20049;-71
2022/05/08 09:22:05;;;;;;;9.25;2.60;;;15.70;93.00;;;;;;5036912;28;20133;-70
2022/05/08 09:24:31;;;;;;;12.38;2.30;;;15.60;94.60;;;;;;5037383;28;20116;-71
2022/05/08 09:27:11;;;;;;;10.73;2.72;;;15.70;94.80;;;;;;5037095;28;20060;-71
2022/05/08 09:29:37;;;;;;;14.57;2.17;;;15.40;95.00;;;;;;5004259;28;20057;-70
2022/05/08 09:32:03;;;;;;;11.23;2.25;;;15.60;95.30;;;;;;5037323;28;20454;-71
2022/05/08 09:34:29;;;;;;;9.15;2.25;;;15.60;95.60;;;;;;5019884;28;20049;-72
2022/05/08 09:37:07;;;;;;;11.50;2.40;;;16.10;94.50;;;;;;5036762;28;20034;-71
2022/05/08 09:39:33;;;;;;;13.27;2.90;;;16.30;93.50;;;;;;5018960;28;20061;-71
2022/05/08 09:41:59;;;;;;;13.25;2.60;;;16.60;93.40;;;;;;5036620;28;20378;-72
2022/05/08 09:44:24;;;;;;;14.68;2.60;;;16.80;92.90;;;;;;5019676;28;20053;-71
2022/05/08 09:46:50;;;;;;;10.20;2.40;;;16.60;92.60;;;;;;5020224;28;20106;-71
2022/05/08 09:49:20;;;;;;;13.75;2.70;;;16.30;92.00;;;;;;5036948;28;20049;-71
2022/05/08 09:51:47;;;;;;;9.65;2.55;;;16.10;92.20;;;;;;5036642;28;20045;-70
2022/05/08 09:54:14;;;;;;;16.17;2.95;;;15.70;92.20;;;;;;5036420;28;20049;-71
2022/05/08 09:56:42;;;;;;;10.73;2.40;;;15.30;93.50;;;;;;5036597;28;20041;-70
2022/05/08 09:59:10;;;;;;;10.65;2.40;;;15.30;94.20;;;;;;5036344;28;20056;-71
2022/05/08 10:01:38;;;;;;;10.68;2.83;;;15.40;93.80;;;;;;5036345;28;20536;-71
2022/05/08 10:04:03;;;;;;;11.82;2.70;;;15.20;93.50;;;;;;5036378;28;20377;-71
2022/05/08 10:06:32;;;;;;;14.40;2.70;;;14.80;93.80;;;;;;5036350;28;20049;-73
2022/05/08 10:14:30;;;;;;;13.60;2.45;;;14.60;94.70;;;;;;5036126;28;20127;-71
2022/05/08 10:17:06;;;;;;;9.18;2.03;;;14.60;95.60;;;;;;5035982;28;20049;-70
2022/05/08 10:19:32;;;;;;;13.80;2.70;;;14.80;95.40;;;;;;5036193;28;20132;-71
2022/05/08 10:22:05;;;;;;;11.48;2.83;;;15.00;95.60;;;;;;5036102;28;20396;-71
2022/05/08 10:24:31;;;;;;;13.95;2.92;;;15.10;95.70;;;;;;5035064;28;20434;-71
2022/05/08 10:27:22;;;;;;;11.45;3.17;;;15.30;95.00;;;;;;5018453;28;20053;-71
2022/05/08 10:29:50;;;;;;;11.65;2.58;;;15.40;95.00;;;;;;5036184;28;20038;-71
2022/05/08 10:32:28;;;;;;;15.45;2.50;;;15.40;94.40;;;;;;5036068;28;20450;-71
2022/05/08 10:35:17;;;;;;;17.27;3.13;;;15.20;93.90;;;;;;5035795;28;20056;-71
2022/05/08 10:37:46;;;;;;;11.23;2.42;;;15.50;94.60;;;;;;5036121;28;20053;-71
2022/05/08 10:40:24;;;;;;;12.20;2.53;;;15.60;94.20;;;;;;5035255;28;20772;-71
2022/05/08 10:43:01;;;;;;;8.90;2.28;;;15.60;94.00;;;;;;5035599;28;20045;-70
2022/05/08 10:45:32;;;;;;;15.35;2.30;;;15.60;94.00;;;;;;5035603;28;20098;-71
2022/05/08 10:48:08;;;;;;;9.10;2.22;;;15.50;95.10;;;;;;5036129;28;20048;-70
2022/05/08 10:50:38;;;;;;;10.10;2.42;;;15.60;93.40;;;;;;5035322;28;20092;-71
2022/05/08 10:53:05;;;;;;;11.65;2.60;;;15.50;93.90;;;;;;5035458;28;20056;-70
2022/05/08 10:55:31;;;;;;;12.85;2.55;;;15.90;94.70;;;;;;5035496;28;20068;-72
2022/05/08 10:57:57;;;;;;;8.85;2.25;;;16.00;92.90;;;;;;5018100;28;20374;-72
2022/05/08 11:00:28;;;;;;;7.93;2.50;;;15.90;92.20;;;;;;5032228;28;20045;-71
2022/05/08 11:03:01;;;;;;;13.85;2.55;;;15.90;91.60;;;;;;5035016;28;20087;-71
2022/05/08 11:05:34;;;;;;;14.02;3.78;;;15.80;92.10;;;;;;5035162;28;20053;-71
2022/05/08 11:08:07;;;;;;;11.40;2.60;;;15.80;92.20;;;;;;5035790;28;20046;-72
2022/05/08 11:10:35;;;;;;;13.18;3.05;;;15.70;92.70;;;;;;5017851;28;20048;-72
2022/05/08 11:13:11;;;;;;;14.02;2.55;;;15.70;93.60;;;;;;5017763;28;20045;-72
2022/05/08 11:15:46;;;;;;;14.13;3.08;;;15.80;94.00;;;;;;5034999;28;20120;-71
2022/05/08 11:18:16;;;;;;;13.43;3.00;;;15.80;93.00;;;;;;5017842;28;20155;-71
2022/05/08 11:20:46;;;;;;;10.20;2.67;;;15.70;92.80;;;;;;5035012;28;20042;-71
2022/05/08 11:23:12;;;;;;;11.90;2.60;;;15.70;93.40;;;;;;5017841;28;20196;-71
2022/05/08 11:25:38;;;;;;;15.88;3.67;;;15.70;92.50;;;;;;5034883;28;20038;-72
2022/05/08 11:28:04;;;;;;;10.32;2.10;;;15.80;92.90;;;;;;5035384;28;20480;-72
2022/05/08 11:30:35;;;;;;;14.63;2.42;;;15.90;93.40;;;;;;5031761;28;20045;-72
2022/05/08 11:36:10;;;;;;;15.50;2.53;;;16.30;92.40;;;;;;5034548;28;20045;-71
2022/05/08 11:38:50;;;;;;;11.20;2.50;;;16.20;92.30;;;;;;5034624;28;20048;-71
2022/05/08 11:41:36;;;;;;;12.38;2.47;;;16.20;91.70;;;;;;5000742;28;20056;-72
2022/05/08 11:44:14;;;;;;;13.25;2.55;;;16.00;92.60;;;;;;5017648;28;20084;-72
2022/05/08 11:46:48;;;;;;;12.93;3.42;;;15.90;92.70;;;;;;5017716;28;20123;-72
2022/05/08 11:49:22;;;;;;;9.65;2.53;;;16.00;92.30;;;;;;5034657;28;20072;-72
2022/05/08 11:51:53;;;;;;;9.63;2.35;;;15.80;90.30;;;;;;5034816;28;20037;-71
2022/05/08 11:54:40;;;;;;;13.20;2.20;;;16.00;90.40;;;;;;5019480;28;20046;-71
2022/05/08 11:57:19;;;;;;;14.00;2.53;;;16.00;89.20;;;;;;5032149;28;20068;-71
2022/05/08 12:00:06;;;;;;;9.80;1.88;;;16.00;90.30;;;;;;5033894;28;20128;-70
2022/05/08 12:02:40;;;;;;;10.75;2.15;;;15.90;90.90;;;;;;5017614;28;20084;-69
2022/05/08 12:05:07;;;;;;;10.70;2.30;;;16.00;90.20;;;;;;5016686;28;20064;-70
2022/05/08 12:07:42;;;;;;;11.98;2.67;;;16.00;91.30;;;;;;5034051;28;20030;-69
2022/05/08 12:10:10;;;;;;;12.55;2.58;;;16.00;88.70;;;;;;5033276;28;20420;-70
2022/05/08 12:12:40;;;;;;;13.45;2.67;;;16.00;90.20;;;;;;5024847;28;20114;-71
2022/05/08 12:15:06;;;;;;;12.40;3.80;;;16.00;88.00;;;;;;5033400;28;20045;-72
2022/05/08 12:17:43;;;;;;;14.05;3.10;;;15.90;87.30;;;;;;5034286;28;20107;-70
2022/05/08 12:20:18;;;;;;;10.68;2.35;;;15.60;89.80;;;;;;5033756;28;20053;-72
2022/05/08 12:22:44;;;;;;;10.38;2.20;;;15.70;91.00;;;;;;5034103;28;20129;-70
2022/05/08 12:25:11;;;;;;;13.25;2.55;;;15.80;90.70;;;;;;5034277;28;20041;-70
2022/05/08 12:27:37;;;;;;;10.27;2.55;;;15.90;90.80;;;;;;5033194;28;20056;-69
2022/05/08 12:30:09;;;;;;;9.65;2.67;;;15.90;90.70;;;;;;5034153;28;20374;-72
2022/05/08 12:32:39;;;;;;;13.35;2.45;;;15.80;90.10;;;;;;5033952;28;20110;-73
2022/05/08 12:35:05;;;;;;;10.82;2.50;;;16.00;90.30;;;;;;5034067;28;20168;-72
2022/05/08 12:37:31;;;;;;;12.95;2.58;;;16.10;89.40;;;;;;5034869;28;20075;-73
2022/05/08 12:39:56;;;;;;;9.57;2.20;;;16.10;89.60;;;;;;5039192;28;20146;-69
2022/05/08 12:42:22;;;;;;;12.45;2.15;;;16.20;86.20;;;;;;5016164;28;20051;-70
2022/05/08 12:44:48;;;;;;;10.55;2.40;;;16.10;85.10;;;;;;5032646;28;20351;-71
2022/05/08 12:47:14;;;;;;;10.13;2.10;;;16.00;87.70;;;;;;5036078;28;20132;-70
2022/05/08 12:49:41;;;;;;;10.00;2.25;;;16.30;87.30;;;;;;5037560;28;20123;-70
2022/05/08 12:52:08;;;;;;;11.20;2.90;;;16.40;87.10;;;;;;5037872;28;20057;-70
2022/05/08 12:54:34;;;;;;;11.77;2.20;;;16.70;84.90;;;;;;5042650;28;20196;-68
2022/05/08 12:57:01;;;;;;;11.55;2.13;;;16.60;85.40;;;;;;5057499;28;20140;-70
2022/05/08 12:59:43;;;;;;;10.23;2.38;;;16.50;84.90;;;;;;5057197;28;20041;-70
2022/05/08 13:02:18;;;;;;;7.88;1.90;;;16.60;87.50;;;;;;5057257;28;20060;-70
2022/05/08 13:04:45;;;;;;;9.20;2.55;;;16.90;82.70;;;;;;5039374;28;20425;-71
2022/05/08 13:07:11;;;;;;;12.32;2.40;;;17.00;85.40;;;;;;5065309;28;20036;-70
2022/05/08 13:09:37;;;;;;;12.70;2.60;;;17.10;84.30;;;;;;5050551;28;20443;-70